createdAt,value
2018-11-25T00:01:02.383Z,5.60
2018-11-25T00:03:29.923Z,5.60
2018-11-25T00:05:57.454Z,5.60
2018-11-25T00:08:24.961Z,5.60
2018-11-25T00:10:52.593Z,5.50
2018-11-25T00:13:20.036Z,5.50
2018-11-25T00:15:49.646Z,5.60
2018-11-25T00:18:18.135Z,5.60
2018-11-25T00:20:44.971Z,5.60
2018-11-25T00:23:12.523Z,5.60
2018-11-25T00:25:39.949Z,5.60
2018-11-25T00:28:07.474Z,5.70
2018-11-25T00:30:34.991Z,5.70
2018-11-25T00:33:03.235Z,5.70
2018-11-25T00:35:30.808Z,5.60
2018-11-25T00:37:58.327Z,5.70
2018-11-25T00:40:25.749Z,5.60
2018-11-25T00:42:53.918Z,5.60
2018-11-25T00:45:21.345Z,5.60
2018-11-25T00:47:49.444Z,5.70
2018-11-25T00:50:16.981Z,5.60
2018-11-25T00:52:44.496Z,5.70
2018-11-25T00:55:13.977Z,5.70
2018-11-25T00:57:41.549Z,5.70
2018-11-25T01:00:15.254Z,5.70
2018-11-25T01:02:42.757Z,5.70
2018-11-25T01:05:10.783Z,5.80
2018-11-25T01:07:38.347Z,5.70
2018-11-25T01:10:12.450Z,5.80
2018-11-25T01:12:39.929Z,5.80
2018-11-25T01:15:09.759Z,5.80
2018-11-25T01:17:38.212Z,5.80
2018-11-25T01:20:08.520Z,5.80
2018-11-25T01:22:36.057Z,5.80
2018-11-25T01:25:03.669Z,5.80
2018-11-25T01:27:31.197Z,5.80
2018-11-25T01:29:59.003Z,5.70
2018-11-25T01:32:26.469Z,5.80
2018-11-25T01:35:00.878Z,5.80
2018-11-25T01:37:21.417Z,5.80
2018-11-25T01:39:48.943Z,5.80
2018-11-25T01:42:16.501Z,5.80
2018-11-25T01:44:43.991Z,5.90
2018-11-25T01:47:11.650Z,5.80
2018-11-25T01:49:39.136Z,5.70
2018-11-25T01:52:06.624Z,5.80
2018-11-25T01:54:34.057Z,5.90
2018-11-25T01:57:01.547Z,5.80
2018-11-25T01:59:29.000Z,5.70
2018-11-25T02:01:56.598Z,5.70
2018-11-25T02:04:24.085Z,5.70
2018-11-25T02:06:51.529Z,5.60
2018-11-25T02:09:19.131Z,5.60
2018-11-25T02:11:46.675Z,5.70
2018-11-25T02:14:14.201Z,5.70
2018-11-25T02:16:41.685Z,5.70
2018-11-25T02:19:09.137Z,5.60
2018-11-25T02:21:36.597Z,5.60
2018-11-25T02:24:04.114Z,5.50
2018-11-25T02:26:32.181Z,5.40
2018-11-25T02:28:59.647Z,5.30
2018-11-25T02:31:27.108Z,5.30
2018-11-25T02:33:54.619Z,5.30
2018-11-25T02:36:22.102Z,5.40
2018-11-25T02:38:49.576Z,5.40
2018-11-25T02:41:17.070Z,5.30
2018-11-25T02:43:44.605Z,5.30
2018-11-25T02:46:12.107Z,5.30
2018-11-25T02:48:39.504Z,5.20
2018-11-25T02:51:07.430Z,5.10
2018-11-25T02:53:34.986Z,5.10
2018-11-25T02:56:02.470Z,5.00
2018-11-25T02:58:29.898Z,4.90
2018-11-25T03:00:57.763Z,5.00
2018-11-25T03:03:25.244Z,4.90
2018-11-25T03:05:52.647Z,4.90
2018-11-25T03:08:20.072Z,4.90
2018-11-25T03:10:47.433Z,4.90
2018-11-25T03:13:14.845Z,4.90
2018-11-25T03:15:42.330Z,4.90
2018-11-25T03:18:09.805Z,5.00
2018-11-25T03:20:37.291Z,5.00
2018-11-25T03:23:05.058Z,5.00
2018-11-25T03:25:32.482Z,5.00
2018-11-25T03:27:59.974Z,5.00
2018-11-25T03:30:27.462Z,4.90
2018-11-25T03:32:54.950Z,5.00
2018-11-25T03:35:22.407Z,4.90
2018-11-25T03:37:49.908Z,4.90
2018-11-25T03:40:18.774Z,4.90
2018-11-25T03:42:46.415Z,4.90
2018-11-25T03:45:16.805Z,4.90
2018-11-25T03:47:44.162Z,4.90
2018-11-25T03:50:12.364Z,4.90
2018-11-25T03:52:42.518Z,5.00
2018-11-25T03:55:10.896Z,4.90
2018-11-25T03:57:38.310Z,4.90
2018-11-25T04:00:14.976Z,4.90
2018-11-25T04:02:42.459Z,5.00
2018-11-25T04:05:11.140Z,5.00
2018-11-25T04:07:38.799Z,4.90
2018-11-25T04:10:10.367Z,4.90
2018-11-25T04:12:38.670Z,4.90
2018-11-25T04:15:12.610Z,5.00
2018-11-25T04:17:40.126Z,4.90
2018-11-25T04:20:10.841Z,5.00
2018-11-25T04:22:38.355Z,5.00
2018-11-25T04:25:08.672Z,5.00
2018-11-25T04:27:36.258Z,5.00
2018-11-25T04:30:06.417Z,5.00
2018-11-25T04:32:33.913Z,5.00
2018-11-25T04:35:01.427Z,4.90
2018-11-25T04:37:28.911Z,4.90
2018-11-25T04:39:56.529Z,4.90
2018-11-25T04:42:24.081Z,4.90
2018-11-25T04:44:51.416Z,4.80
2018-11-25T04:47:18.904Z,4.70
2018-11-25T04:49:46.402Z,4.80
2018-11-25T04:52:13.893Z,4.80
2018-11-25T04:54:41.321Z,4.80
2018-11-25T04:57:08.703Z,4.80
2018-11-25T04:59:36.100Z,4.70
2018-11-25T05:02:03.632Z,4.70
2018-11-25T05:04:31.181Z,4.60
2018-11-25T05:06:58.652Z,4.50
2018-11-25T05:09:26.119Z,4.40
2018-11-25T05:11:53.665Z,4.40
2018-11-25T05:14:21.243Z,4.30
2018-11-25T05:16:48.700Z,4.30
2018-11-25T05:19:16.192Z,4.30
2018-11-25T05:21:43.722Z,4.40
2018-11-25T05:24:11.089Z,4.30
2018-11-25T05:26:38.605Z,4.30
2018-11-25T05:29:06.293Z,4.30
2018-11-25T05:31:33.682Z,4.20
2018-11-25T05:34:01.120Z,4.20
2018-11-25T05:36:28.544Z,4.20
2018-11-25T05:38:55.959Z,4.00
2018-11-25T05:41:23.417Z,4.10
2018-11-25T05:43:50.905Z,4.20
2018-11-25T05:46:18.317Z,4.20
2018-11-25T05:48:45.755Z,4.10
2018-11-25T05:51:13.295Z,4.00
2018-11-25T05:53:40.717Z,4.00
2018-11-25T05:56:08.116Z,3.90
2018-11-25T05:58:35.548Z,3.90
2018-11-25T06:01:03.141Z,3.90
2018-11-25T06:03:30.583Z,3.90
2018-11-25T06:05:58.704Z,3.80
2018-11-25T06:08:26.604Z,3.80
2018-11-25T06:10:54.395Z,3.80
2018-11-25T06:13:21.844Z,3.80
2018-11-25T06:15:49.576Z,3.80
2018-11-25T06:18:17.075Z,3.80
2018-11-25T06:20:44.587Z,3.80
2018-11-25T06:23:12.149Z,3.90
2018-11-25T06:25:39.690Z,4.00
2018-11-25T06:28:07.138Z,4.00
2018-11-25T06:30:34.614Z,4.00
2018-11-25T06:33:02.096Z,4.10
2018-11-25T06:35:29.444Z,4.10
2018-11-25T06:37:57.033Z,4.20
2018-11-25T06:40:25.086Z,4.10
2018-11-25T06:42:52.800Z,4.00
2018-11-25T06:45:24.726Z,4.00
2018-11-25T06:47:53.710Z,4.10
2018-11-25T06:50:21.148Z,4.10
2018-11-25T06:52:48.538Z,4.10
2018-11-25T06:55:16.123Z,4.10
2018-11-25T06:57:43.630Z,4.10
2018-11-25T07:00:22.921Z,4.20
2018-11-25T07:02:50.487Z,4.20
2018-11-25T07:05:17.962Z,4.20
2018-11-25T07:07:45.531Z,4.20
2018-11-25T07:10:16.612Z,4.10
2018-11-25T07:12:44.141Z,4.00
2018-11-25T07:15:13.434Z,4.10
2018-11-25T07:17:40.890Z,4.00
2018-11-25T07:20:09.864Z,4.00
2018-11-25T07:22:37.360Z,4.00
2018-11-25T07:25:07.212Z,3.80
2018-11-25T07:27:34.602Z,3.80
2018-11-25T07:30:07.626Z,3.80
2018-11-25T07:32:29.856Z,3.70
2018-11-25T07:34:57.264Z,3.80
2018-11-25T07:37:24.780Z,3.70
2018-11-25T07:39:52.296Z,3.70
2018-11-25T07:42:19.717Z,3.70
2018-11-25T07:44:47.090Z,3.90
2018-11-25T07:47:14.544Z,3.90
2018-11-25T07:49:42.121Z,3.80
2018-11-25T07:52:09.594Z,3.80
2018-11-25T07:54:37.062Z,3.80
2018-11-25T07:57:04.751Z,3.90
2018-11-25T07:59:32.256Z,3.90
2018-11-25T08:01:59.717Z,3.80
2018-11-25T08:04:27.253Z,3.80
2018-11-25T08:06:54.762Z,3.90
2018-11-25T08:09:22.432Z,3.90
2018-11-25T08:11:49.968Z,3.80
2018-11-25T08:14:17.404Z,3.80
2018-11-25T08:16:44.882Z,3.80
2018-11-25T08:19:12.427Z,3.80
2018-11-25T08:21:39.942Z,3.80
2018-11-25T08:24:07.464Z,3.80
2018-11-25T08:26:34.945Z,3.90
2018-11-25T08:29:02.374Z,3.90
2018-11-25T08:31:29.830Z,4.00
2018-11-25T08:33:57.387Z,3.90
2018-11-25T08:36:24.848Z,3.90
2018-11-25T08:38:52.559Z,3.90
2018-11-25T08:41:20.006Z,3.90
2018-11-25T08:43:47.524Z,3.90
2018-11-25T08:46:14.983Z,3.90
2018-11-25T08:48:42.521Z,3.90
2018-11-25T08:51:10.036Z,4.00
2018-11-25T08:53:37.574Z,4.00
2018-11-25T08:56:05.931Z,4.00
2018-11-25T08:58:33.413Z,4.00
2018-11-25T09:01:00.919Z,4.10
2018-11-25T09:03:28.513Z,4.20
2018-11-25T09:05:56.797Z,4.20
2018-11-25T09:08:24.357Z,4.20
2018-11-25T09:10:51.801Z,4.20
2018-11-25T09:13:19.221Z,4.20
2018-11-25T09:15:46.617Z,4.20
2018-11-25T09:18:14.193Z,4.20
2018-11-25T09:20:41.706Z,4.30
2018-11-25T09:23:09.092Z,4.30
2018-11-25T09:25:36.623Z,4.40
2018-11-25T09:28:04.701Z,4.50
2018-11-25T09:30:32.949Z,4.50
2018-11-25T09:33:00.487Z,4.50
2018-11-25T09:35:27.965Z,4.50
2018-11-25T09:37:55.465Z,4.60
2018-11-25T09:40:24.052Z,4.60
2018-11-25T09:42:51.510Z,4.60
2018-11-25T09:45:19.800Z,4.60
2018-11-25T09:47:47.557Z,4.50
2018-11-25T09:50:17.441Z,4.70
2018-11-25T09:52:44.964Z,4.80
2018-11-25T09:55:15.409Z,4.90
2018-11-25T09:57:47.863Z,4.90
2018-11-25T10:00:17.343Z,4.80
2018-11-25T10:02:44.946Z,4.90
2018-11-25T10:05:12.447Z,4.90
2018-11-25T10:07:40.016Z,4.90
2018-11-25T10:10:11.030Z,4.90
2018-11-25T10:12:38.429Z,4.90
2018-11-25T10:15:10.684Z,5.00
2018-11-25T10:17:38.205Z,5.00
2018-11-25T10:20:14.608Z,5.20
2018-11-25T10:22:41.985Z,5.20
2018-11-25T10:25:10.733Z,5.30
2018-11-25T10:27:38.160Z,5.40
2018-11-25T10:30:22.589Z,5.40
2018-11-25T10:32:51.371Z,5.40
2018-11-25T10:35:18.872Z,5.30
2018-11-25T10:37:46.386Z,5.20
2018-11-25T10:40:15.932Z,5.30
2018-11-25T10:42:44.061Z,5.40
2018-11-25T10:45:12.796Z,5.30
2018-11-25T10:47:40.320Z,5.50
2018-11-25T10:50:09.551Z,5.60
2018-11-25T10:52:37.776Z,5.70
2018-11-25T10:55:07.282Z,5.70
2018-11-25T10:57:34.678Z,5.70
2018-11-25T11:00:02.241Z,5.60
2018-11-25T11:02:35.412Z,5.70
2018-11-25T11:05:04.050Z,5.70
2018-11-25T11:07:38.194Z,5.80
2018-11-25T11:10:07.433Z,5.80
2018-11-25T11:12:35.046Z,5.90
2018-11-25T11:15:02.914Z,5.90
2018-11-25T11:17:30.323Z,6.00
2018-11-25T11:19:57.910Z,6.00
2018-11-25T11:22:25.547Z,5.90
2018-11-25T11:24:53.090Z,6.00
2018-11-25T11:27:20.723Z,6.00
2018-11-25T11:29:48.182Z,6.00
2018-11-25T11:32:15.648Z,6.00
2018-11-25T11:34:43.139Z,6.10
2018-11-25T11:37:10.628Z,6.10
2018-11-25T11:39:38.071Z,6.10
2018-11-25T11:42:05.796Z,6.10
2018-11-25T11:44:33.336Z,6.10
2018-11-25T11:47:00.874Z,6.00
2018-11-25T11:49:28.409Z,5.90
2018-11-25T11:51:55.914Z,6.00
2018-11-25T11:54:23.492Z,6.10
2018-11-25T11:56:51.010Z,6.30
2018-11-25T11:59:18.466Z,6.30
2018-11-25T12:01:46.027Z,6.40
2018-11-25T12:04:13.552Z,6.40
2018-11-25T12:06:41.066Z,6.50
2018-11-25T12:09:09.562Z,6.60
2018-11-25T12:11:37.017Z,6.50
2018-11-25T12:14:04.899Z,6.50
2018-11-25T12:16:32.411Z,6.60
2018-11-25T12:19:00.051Z,6.60
2018-11-25T12:21:27.625Z,6.60
2018-11-25T12:23:56.011Z,6.50
2018-11-25T12:26:23.610Z,6.60
2018-11-25T12:28:51.103Z,6.60
2018-11-25T12:31:18.586Z,6.70
2018-11-25T12:33:46.037Z,6.70
2018-11-25T12:36:13.432Z,6.80
2018-11-25T12:38:40.841Z,6.70
2018-11-25T12:41:08.492Z,6.70
2018-11-25T12:43:35.981Z,6.80
2018-11-25T12:46:03.590Z,6.70
2018-11-25T12:48:31.030Z,6.80
2018-11-25T12:50:58.551Z,6.80
2018-11-25T12:53:26.099Z,7.00
2018-11-25T12:55:53.621Z,7.00
2018-11-25T12:58:21.171Z,6.90
2018-11-25T13:00:48.885Z,6.90
2018-11-25T13:03:16.782Z,6.90
2018-11-25T13:05:46.179Z,7.00
2018-11-25T13:08:13.509Z,6.80
2018-11-25T13:10:41.404Z,6.70
2018-11-25T13:13:10.139Z,6.60
2018-11-25T13:15:37.649Z,6.70
2018-11-25T13:18:06.745Z,6.70
2018-11-25T13:20:34.817Z,6.70
2018-11-25T13:23:02.686Z,6.70
2018-11-25T13:25:30.400Z,6.80
2018-11-25T13:27:58.415Z,6.80
2018-11-25T13:30:28.348Z,6.90
2018-11-25T13:32:57.317Z,6.90
2018-11-25T13:35:26.278Z,6.90
2018-11-25T13:37:54.448Z,6.90
2018-11-25T13:40:22.561Z,6.80
2018-11-25T13:42:50.047Z,6.70
2018-11-25T13:45:17.986Z,6.80
2018-11-25T13:47:45.854Z,6.60
2018-11-25T13:50:13.333Z,6.70
2018-11-25T13:52:41.282Z,6.70
2018-11-25T13:55:12.505Z,6.60
2018-11-25T13:57:40.490Z,6.60
2018-11-25T14:00:28.138Z,6.70
2018-11-25T14:02:55.820Z,6.70
2018-11-25T14:05:23.452Z,6.80
2018-11-25T14:07:51.174Z,6.80
2018-11-25T14:10:23.090Z,6.80
2018-11-25T14:12:50.492Z,6.70
2018-11-25T14:15:18.310Z,6.70
2018-11-25T14:17:45.848Z,6.80
2018-11-25T14:20:13.371Z,6.80
2018-11-25T14:22:40.912Z,6.80
2018-11-25T14:25:10.139Z,6.80
2018-11-25T14:27:37.828Z,7.00
2018-11-25T14:30:13.414Z,6.80
2018-11-25T14:32:37.768Z,6.80
2018-11-25T14:35:07.282Z,6.80
2018-11-25T14:37:34.882Z,6.70
2018-11-25T14:40:02.681Z,6.70
2018-11-25T14:42:30.238Z,6.60
2018-11-25T14:44:57.707Z,6.60
2018-11-25T14:47:25.799Z,6.60
2018-11-25T14:49:53.373Z,6.50
2018-11-25T14:52:20.817Z,6.50
2018-11-25T14:54:51.347Z,6.50
2018-11-25T14:57:15.878Z,6.50
2018-11-25T14:59:43.329Z,6.40
2018-11-25T15:02:10.791Z,6.30
2018-11-25T15:04:38.240Z,6.30
2018-11-25T15:07:05.838Z,6.30
2018-11-25T15:09:33.241Z,6.20
2018-11-25T15:12:00.712Z,6.10
2018-11-25T15:14:28.540Z,6.10
2018-11-25T15:16:56.161Z,6.10
2018-11-25T15:19:23.573Z,5.90
2018-11-25T15:21:52.878Z,5.90
2018-11-25T15:24:20.392Z,5.80
2018-11-25T15:26:47.958Z,5.70
2018-11-25T15:29:15.558Z,5.70
2018-11-25T15:31:43.092Z,5.60
2018-11-25T15:34:10.710Z,5.60
2018-11-25T15:36:38.171Z,5.50
2018-11-25T15:39:09.190Z,5.50
2018-11-25T15:41:36.655Z,5.50
2018-11-25T15:44:05.494Z,5.50
2018-11-25T15:46:33.102Z,5.40
2018-11-25T15:49:00.567Z,5.40
2018-11-25T15:51:28.304Z,5.40
2018-11-25T15:53:55.886Z,5.40
2018-11-25T15:56:23.507Z,5.40
2018-11-25T15:58:51.169Z,5.20
2018-11-25T16:01:18.670Z,5.10
2018-11-25T16:03:46.301Z,5.20
2018-11-25T16:06:16.360Z,5.10
2018-11-25T16:08:43.971Z,5.20
2018-11-25T16:11:11.507Z,5.20
2018-11-25T16:13:39.023Z,5.20
2018-11-25T16:16:06.779Z,5.10
2018-11-25T16:18:34.371Z,5.20
2018-11-25T16:21:01.871Z,5.20
2018-11-25T16:23:30.301Z,5.30
2018-11-25T16:26:00.538Z,5.40
2018-11-25T16:28:32.074Z,5.40
2018-11-25T16:30:59.738Z,5.50
2018-11-25T16:33:27.940Z,5.50
2018-11-25T16:35:56.295Z,5.60
2018-11-25T16:38:24.063Z,5.60
2018-11-25T16:40:51.533Z,5.70
2018-11-25T16:43:19.515Z,5.70
2018-11-25T16:45:46.923Z,5.70
2018-11-25T16:48:14.442Z,5.70
2018-11-25T16:50:42.003Z,5.70
2018-11-25T16:53:09.951Z,5.70
2018-11-25T16:55:38.028Z,5.70
2018-11-25T16:58:06.486Z,5.80
2018-11-25T17:00:33.970Z,5.80
2018-11-25T17:03:01.455Z,5.80
2018-11-25T17:05:35.093Z,5.80
2018-11-25T17:08:19.208Z,5.80
2018-11-25T17:10:46.810Z,5.80
2018-11-25T17:13:14.374Z,5.70
2018-11-25T17:15:41.851Z,5.80
2018-11-25T17:18:09.481Z,5.80
2018-11-25T17:20:37.036Z,5.70
2018-11-25T17:23:05.415Z,5.90
2018-11-25T17:25:32.995Z,5.80
2018-11-25T17:28:00.502Z,5.80
2018-11-25T17:30:27.950Z,5.90
2018-11-25T17:32:55.466Z,5.90
2018-11-25T17:35:26.364Z,5.90
2018-11-25T17:37:53.861Z,6.00
2018-11-25T17:40:21.443Z,6.00
2018-11-25T17:42:49.352Z,6.00
2018-11-25T17:45:16.850Z,6.10
2018-11-25T17:47:44.526Z,6.00
2018-11-25T17:50:20.285Z,6.00
2018-11-25T17:52:48.180Z,6.00
2018-11-25T17:55:16.468Z,6.00
2018-11-25T17:57:44.065Z,6.00
2018-11-25T18:00:25.476Z,6.00
2018-11-25T18:02:53.002Z,6.00
2018-11-25T18:05:20.498Z,6.00
2018-11-25T18:07:48.029Z,6.10
2018-11-25T18:10:15.604Z,6.10
2018-11-25T18:12:43.050Z,6.10
2018-11-25T18:15:16.107Z,6.10
2018-11-25T18:17:47.353Z,6.10
2018-11-25T18:20:14.861Z,6.20
2018-11-25T18:22:45.480Z,6.10
2018-11-25T18:25:13.055Z,6.10
2018-11-25T18:27:40.550Z,6.10
2018-11-25T18:30:11.290Z,6.10
2018-11-25T18:32:39.871Z,6.10
2018-11-25T18:35:08.926Z,6.10
2018-11-25T18:37:36.372Z,6.10
2018-11-25T18:40:05.345Z,6.20
2018-11-25T18:42:32.931Z,6.10
2018-11-25T18:45:00.574Z,6.20
2018-11-25T18:47:28.471Z,6.20
2018-11-25T18:49:56.039Z,6.20
2018-11-25T18:52:23.650Z,6.20
2018-11-25T18:54:50.063Z,6.30
2018-11-25T18:57:18.030Z,6.20
2018-11-25T18:59:45.988Z,6.30
2018-11-25T19:02:24.283Z,6.30
2018-11-25T19:04:51.895Z,6.30
2018-11-25T19:07:19.529Z,6.30
2018-11-25T19:09:46.987Z,6.30
2018-11-25T19:12:14.674Z,6.30
2018-11-25T19:14:42.290Z,6.30
2018-11-25T19:17:09.830Z,6.30
2018-11-25T19:19:37.695Z,6.30
2018-11-25T19:22:05.316Z,6.30
2018-11-25T19:24:32.820Z,6.30
2018-11-25T19:27:00.449Z,6.30
2018-11-25T19:29:28.359Z,6.30
2018-11-25T19:31:55.831Z,6.30
2018-11-25T19:34:23.288Z,6.30
2018-11-25T19:36:50.822Z,6.30
2018-11-25T19:39:18.464Z,6.30
2018-11-25T19:41:45.895Z,6.30
2018-11-25T19:44:13.346Z,6.30
2018-11-25T19:46:40.845Z,6.30
2018-11-25T19:49:09.026Z,6.30
2018-11-25T19:51:36.891Z,6.30
2018-11-25T19:54:04.865Z,6.20
2018-11-25T19:56:32.342Z,6.30
2018-11-25T19:59:00.625Z,6.30
2018-11-25T20:01:29.079Z,6.20
2018-11-25T20:03:56.843Z,6.20
2018-11-25T20:06:24.565Z,6.20
2018-11-25T20:08:52.091Z,6.20
2018-11-25T20:11:19.673Z,6.20
2018-11-25T20:13:48.332Z,6.20
2018-11-25T20:16:21.546Z,6.20
2018-11-25T20:18:49.105Z,6.20
2018-11-25T20:21:22.199Z,6.20
2018-11-25T20:23:49.602Z,6.20
2018-11-25T20:26:16.994Z,6.20
2018-11-25T20:28:44.456Z,6.20
2018-11-25T20:31:12.027Z,6.20
2018-11-25T20:33:52.178Z,6.20
2018-11-25T20:36:15.449Z,6.20
2018-11-25T20:38:49.343Z,6.10
2018-11-25T20:41:16.889Z,6.10
2018-11-25T20:43:44.371Z,6.10
2018-11-25T20:46:17.652Z,6.10
2018-11-25T20:48:45.494Z,6.10
2018-11-25T20:51:13.031Z,6.10
2018-11-25T20:53:46.055Z,6.10
2018-11-25T20:56:13.700Z,6.10
2018-11-25T20:58:41.545Z,6.10
2018-11-25T21:01:09.334Z,6.20
2018-11-25T21:03:37.242Z,6.20
2018-11-25T21:06:05.377Z,6.10
2018-11-25T21:08:33.063Z,6.10
2018-11-25T21:11:00.824Z,6.10
2018-11-25T21:13:28.726Z,6.00
2018-11-25T21:15:56.324Z,6.10
2018-11-25T21:18:23.798Z,6.10
2018-11-25T21:20:51.643Z,6.10
2018-11-25T21:23:19.169Z,6.00
2018-11-25T21:25:46.687Z,6.10
2018-11-25T21:28:14.223Z,6.10
2018-11-25T21:30:41.762Z,6.10
2018-11-25T21:33:09.280Z,6.20
2018-11-25T21:35:36.824Z,6.10
2018-11-25T21:38:04.419Z,6.10
2018-11-25T21:40:32.119Z,6.10
2018-11-25T21:42:59.552Z,6.20
2018-11-25T21:45:27.339Z,6.10
2018-11-25T21:47:54.902Z,6.10
2018-11-25T21:50:23.929Z,6.10
2018-11-25T21:52:51.449Z,6.10
2018-11-25T21:55:19.187Z,6.10
2018-11-25T21:57:46.957Z,6.00
2018-11-25T22:00:18.005Z,6.00
2018-11-25T22:02:45.785Z,6.00
2018-11-25T22:05:13.708Z,5.90
2018-11-25T22:07:41.214Z,5.90
2018-11-25T22:10:09.881Z,5.90
2018-11-25T22:12:38.641Z,5.90
2018-11-25T22:15:08.085Z,6.00
2018-11-25T22:17:35.613Z,5.90
2018-11-25T22:20:03.979Z,5.90
2018-11-25T22:22:31.502Z,5.80
2018-11-25T22:24:59.024Z,5.80
2018-11-25T22:27:26.432Z,5.80
2018-11-25T22:29:53.933Z,5.70
2018-11-25T22:32:21.365Z,5.80
2018-11-25T22:34:48.849Z,5.70
2018-11-25T22:37:16.387Z,5.70
2018-11-25T22:39:43.819Z,5.70
2018-11-25T22:42:11.308Z,5.70
2018-11-25T22:44:38.839Z,5.70
2018-11-25T22:47:06.320Z,5.70
2018-11-25T22:49:34.774Z,5.70
2018-11-25T22:52:01.407Z,5.70
2018-11-25T22:54:28.897Z,5.70
2018-11-25T22:56:57.061Z,5.60
2018-11-25T22:59:24.536Z,5.60
2018-11-25T23:01:52.127Z,5.50
2018-11-25T23:04:30.947Z,5.50
2018-11-25T23:07:01.330Z,5.50
2018-11-25T23:09:29.277Z,5.50
2018-11-25T23:11:57.101Z,5.50
2018-11-25T23:14:24.553Z,5.40
2018-11-25T23:16:52.010Z,5.40
2018-11-25T23:19:19.572Z,5.30
2018-11-25T23:21:47.158Z,5.30
2018-11-25T23:24:14.640Z,5.30
2018-11-25T23:26:42.210Z,5.20
2018-11-25T23:29:09.628Z,5.20
2018-11-25T23:31:37.063Z,5.20
2018-11-25T23:34:06.548Z,5.10
2018-11-25T23:36:35.124Z,5.10
2018-11-25T23:39:06.522Z,5.10
2018-11-25T23:41:34.564Z,5.00
2018-11-25T23:44:02.063Z,4.90
2018-11-25T23:46:29.691Z,4.90
2018-11-25T23:48:57.181Z,4.90
2018-11-25T23:51:24.601Z,4.90
2018-11-25T23:53:52.130Z,4.80
2018-11-25T23:56:19.621Z,4.70
2018-11-25T23:58:47.144Z,4.70
